sensor_id;sensor_type;location;lat;lon;timestamp;P1;durP1;ratioP1;P2;durP2;ratioP2
23712;SDS011;12035;49.978;8.298;2022-07-23T00:02:30;6.43;;;3.38;;
23712;SDS011;12035;49.978;8.298;2022-07-23T00:07:30;4.22;;;3.25;;
23712;SDS011;12035;49.978;8.298;2022-07-23T00:12:27;6.18;;;3.85;;
23712;SDS011;12035;49.978;8.298;2022-07-23T00:17:24;5.72;;;3.58;;
23712;SDS011;12035;49.978;8.298;2022-07-23T00:22:23;6.75;;;3.78;;
23712;SDS011;12035;49.978;8.298;2022-07-23T00:27:21;5.15;;;3.13;;
23712;SDS011;12035;49.978;8.298;2022-07-23T00:32:18;5.90;;;3.40;;
23712;SDS011;12035;49.978;8.298;2022-07-23T00:37:15;4.40;;;2.92;;
23712;SDS011;12035;49.978;8.298;2022-07-23T00:42:13;5.18;;;3.17;;
23712;SDS011;12035;49.978;8.298;2022-07-23T00:47:10;3.95;;;3.15;;
23712;SDS011;12035;49.978;8.298;2022-07-23T00:52:07;5.45;;;3.33;;
23712;SDS011;12035;49.978;8.298;2022-07-23T00:57:04;6.25;;;3.45;;
23712;SDS011;12035;49.978;8.298;2022-07-23T01:02:03;6.13;;;3.45;;
23712;SDS011;12035;49.978;8.298;2022-07-23T01:07:00;4.15;;;3.22;;
23712;SDS011;12035;49.978;8.298;2022-07-23T01:11:58;5.35;;;3.28;;
23712;SDS011;12035;49.978;8.298;2022-07-23T01:16:55;5.35;;;3.55;;
23712;SDS011;12035;49.978;8.298;2022-07-23T01:21:55;5.75;;;3.35;;
23712;SDS011;12035;49.978;8.298;2022-07-23T01:26:56;5.97;;;3.58;;
23712;SDS011;12035;49.978;8.298;2022-07-23T01:31:53;5.97;;;3.50;;
23712;SDS011;12035;49.978;8.298;2022-07-23T01:36:50;4.80;;;3.05;;
23712;SDS011;12035;49.978;8.298;2022-07-23T01:41:47;6.68;;;3.60;;
23712;SDS011;12035;49.978;8.298;2022-07-23T01:46:46;6.53;;;3.92;;
23712;SDS011;12035;49.978;8.298;2022-07-23T01:51:43;5.32;;;3.58;;
23712;SDS011;12035;49.978;8.298;2022-07-23T01:56:54;6.22;;;3.25;;
23712;SDS011;12035;49.978;8.298;2022-07-23T02:01:53;6.20;;;3.28;;
23712;SDS011;12035;49.978;8.298;2022-07-23T02:06:50;5.00;;;3.70;;
23712;SDS011;12035;49.978;8.298;2022-07-23T02:11:48;4.68;;;3.75;;
23712;SDS011;12035;49.978;8.298;2022-07-23T02:16:46;6.65;;;3.97;;
23712;SDS011;12035;49.978;8.298;2022-07-23T02:21:44;4.85;;;3.83;;
23712;SDS011;12035;49.978;8.298;2022-07-23T02:26:41;6.00;;;3.70;;
23712;SDS011;12035;49.978;8.298;2022-07-23T02:31:38;5.60;;;4.03;;
23712;SDS011;12035;49.978;8.298;2022-07-23T02:36:35;6.03;;;3.58;;
23712;SDS011;12035;49.978;8.298;2022-07-23T02:41:33;4.63;;;3.50;;
23712;SDS011;12035;49.978;8.298;2022-07-23T02:46:31;5.47;;;3.60;;
23712;SDS011;12035;49.978;8.298;2022-07-23T02:51:28;7.80;;;3.90;;
23712;SDS011;12035;49.978;8.298;2022-07-23T02:56:25;7.43;;;3.92;;
23712;SDS011;12035;49.978;8.298;2022-07-23T03:01:23;7.78;;;4.30;;
23712;SDS011;12035;49.978;8.298;2022-07-23T03:06:20;6.07;;;3.85;;
23712;SDS011;12035;49.978;8.298;2022-07-23T03:11:18;6.90;;;4.10;;
23712;SDS011;12035;49.978;8.298;2022-07-23T03:16:15;5.88;;;3.92;;
23712;SDS011;12035;49.978;8.298;2022-07-23T03:21:14;5.22;;;3.78;;
23712;SDS011;12035;49.978;8.298;2022-07-23T03:26:11;7.00;;;3.75;;
23712;SDS011;12035;49.978;8.298;2022-07-23T03:31:08;4.82;;;3.42;;
23712;SDS011;12035;49.978;8.298;2022-07-23T03:36:05;4.70;;;3.30;;
23712;SDS011;12035;49.978;8.298;2022-07-23T03:41:05;5.47;;;3.95;;
23712;SDS011;12035;49.978;8.298;2022-07-23T03:46:02;5.82;;;3.97;;
23712;SDS011;12035;49.978;8.298;2022-07-23T03:51:00;5.68;;;3.78;;
23712;SDS011;12035;49.978;8.298;2022-07-23T03:55:57;4.82;;;3.78;;
23712;SDS011;12035;49.978;8.298;2022-07-23T04:00:56;5.63;;;4.05;;
23712;SDS011;12035;49.978;8.298;2022-07-23T04:05:53;8.25;;;4.10;;
23712;SDS011;12035;49.978;8.298;2022-07-23T04:10:50;5.28;;;3.63;;
23712;SDS011;12035;49.978;8.298;2022-07-23T04:15:47;6.10;;;4.20;;
23712;SDS011;12035;49.978;8.298;2022-07-23T04:20:47;5.65;;;4.10;;
23712;SDS011;12035;49.978;8.298;2022-07-23T04:25:44;5.32;;;3.97;;
23712;SDS011;12035;49.978;8.298;2022-07-23T04:30:41;4.93;;;3.92;;
23712;SDS011;12035;49.978;8.298;2022-07-23T04:35:38;6.05;;;3.85;;
23712;SDS011;12035;49.978;8.298;2022-07-23T04:40:37;5.65;;;3.72;;
23712;SDS011;12035;49.978;8.298;2022-07-23T04:45:34;6.82;;;3.78;;
23712;SDS011;12035;49.978;8.298;2022-07-23T04:50:31;5.25;;;3.80;;
23712;SDS011;12035;49.978;8.298;2022-07-23T04:55:28;5.57;;;3.72;;
23712;SDS011;12035;49.978;8.298;2022-07-23T05:00:27;5.75;;;3.88;;
23712;SDS011;12035;49.978;8.298;2022-07-23T05:05:24;5.45;;;3.75;;
23712;SDS011;12035;49.978;8.298;2022-07-23T05:10:21;5.63;;;4.05;;
23712;SDS011;12035;49.978;8.298;2022-07-23T05:15:18;6.40;;;3.80;;
23712;SDS011;12035;49.978;8.298;2022-07-23T05:20:17;4.50;;;3.65;;
23712;SDS011;12035;49.978;8.298;2022-07-23T05:25:14;8.30;;;4.45;;
23712;SDS011;12035;49.978;8.298;2022-07-23T05:30:11;5.03;;;3.97;;
23712;SDS011;12035;49.978;8.298;2022-07-23T05:35:09;5.50;;;3.60;;
23712;SDS011;12035;49.978;8.298;2022-07-23T05:40:09;5.00;;;3.80;;
23712;SDS011;12035;49.978;8.298;2022-07-23T05:45:07;5.82;;;4.20;;
23712;SDS011;12035;49.978;8.298;2022-07-23T05:50:06;6.10;;;4.20;;
23712;SDS011;12035;49.978;8.298;2022-07-23T05:55:04;5.82;;;4.05;;
23712;SDS011;12035;49.978;8.298;2022-07-23T06:00:03;6.60;;;4.32;;
23712;SDS011;12035;49.978;8.298;2022-07-23T06:05:03;5.20;;;4.40;;
23712;SDS011;12035;49.978;8.298;2022-07-23T06:10:04;6.00;;;4.82;;
23712;SDS011;12035;49.978;8.298;2022-07-23T06:15:04;5.50;;;3.80;;
23712;SDS011;12035;49.978;8.298;2022-07-23T06:20:02;5.28;;;3.97;;
23712;SDS011;12035;49.978;8.298;2022-07-23T06:25:00;5.55;;;3.80;;
23712;SDS011;12035;49.978;8.298;2022-07-23T06:29:58;4.80;;;3.88;;
23712;SDS011;12035;49.978;8.298;2022-07-23T06:34:56;4.43;;;3.58;;
23712;SDS011;12035;49.978;8.298;2022-07-23T06:39:53;4.53;;;3.38;;
23712;SDS011;12035;49.978;8.298;2022-07-23T06:44:51;5.60;;;3.58;;
23712;SDS011;12035;49.978;8.298;2022-07-23T06:49:48;7.35;;;3.58;;
23712;SDS011;12035;49.978;8.298;2022-07-23T06:54:46;4.55;;;3.45;;
23712;SDS011;12035;49.978;8.298;2022-07-23T06:59:44;6.95;;;3.53;;
23712;SDS011;12035;49.978;8.298;2022-07-23T07:04:41;3.78;;;3.25;;
23712;SDS011;12035;49.978;8.298;2022-07-23T07:09:38;4.00;;;2.95;;
23712;SDS011;12035;49.978;8.298;2022-07-23T07:14:37;6.55;;;3.67;;
23712;SDS011;12035;49.978;8.298;2022-07-23T07:19:34;4.40;;;3.60;;
23712;SDS011;12035;49.978;8.298;2022-07-23T07:24:31;7.43;;;3.25;;
23712;SDS011;12035;49.978;8.298;2022-07-23T07:29:29;4.90;;;3.42;;
23712;SDS011;12035;49.978;8.298;2022-07-23T07:34:27;5.50;;;3.50;;
23712;SDS011;12035;49.978;8.298;2022-07-23T07:39:25;9.13;;;4.00;;
23712;SDS011;12035;49.978;8.298;2022-07-23T07:44:22;6.72;;;4.25;;
23712;SDS011;12035;49.978;8.298;2022-07-23T07:49:19;6.00;;;4.25;;
23712;SDS011;12035;49.978;8.298;2022-07-23T07:54:17;8.20;;;4.22;;
23712;SDS011;12035;49.978;8.298;2022-07-23T07:59:15;7.93;;;3.55;;
23712;SDS011;12035;49.978;8.298;2022-07-23T08:04:12;15.98;;;4.20;;
23712;SDS011;12035;49.978;8.298;2022-07-23T08:09:09;8.35;;;3.60;;
23712;SDS011;12035;49.978;8.298;2022-07-23T08:14:07;5.10;;;3.60;;
23712;SDS011;12035;49.978;8.298;2022-07-23T08:19:06;5.28;;;3.08;;
23712;SDS011;12035;49.978;8.298;2022-07-23T08:24:03;6.07;;;3.63;;
23712;SDS011;12035;49.978;8.298;2022-07-23T08:29:00;5.65;;;3.90;;
23712;SDS011;12035;49.978;8.298;2022-07-23T08:33:59;5.97;;;3.22;;
23712;SDS011;12035;49.978;8.298;2022-07-23T08:38:57;4.90;;;4.07;;
23712;SDS011;12035;49.978;8.298;2022-07-23T08:43:57;6.28;;;4.40;;
23712;SDS011;12035;49.978;8.298;2022-07-23T08:48:56;7.85;;;4.10;;
23712;SDS011;12035;49.978;8.298;2022-07-23T08:53:56;4.97;;;3.65;;
23712;SDS011;12035;49.978;8.298;2022-07-23T08:58:53;5.00;;;4.07;;
23712;SDS011;12035;49.978;8.298;2022-07-23T09:03:51;7.53;;;4.70;;
23712;SDS011;12035;49.978;8.298;2022-07-23T09:08:50;5.53;;;4.00;;
23712;SDS011;12035;49.978;8.298;2022-07-23T09:13:48;7.25;;;3.78;;
23712;SDS011;12035;49.978;8.298;2022-07-23T09:18:48;5.40;;;3.95;;
23712;SDS011;12035;49.978;8.298;2022-07-23T09:23:49;5.75;;;3.83;;
23712;SDS011;12035;49.978;8.298;2022-07-23T09:28:53;3.90;;;3.22;;
23712;SDS011;12035;49.978;8.298;2022-07-23T09:34:01;8.93;;;3.83;;
23712;SDS011;12035;49.978;8.298;2022-07-23T09:39:06;5.65;;;4.18;;
23712;SDS011;12035;49.978;8.298;2022-07-23T09:49:20;6.65;;;3.83;;
23712;SDS011;12035;49.978;8.298;2022-07-23T09:54:25;5.78;;;3.72;;
23712;SDS011;12035;49.978;8.298;2022-07-23T09:59:29;5.53;;;3.55;;
23712;SDS011;12035;49.978;8.298;2022-07-23T10:04:30;6.10;;;4.63;;
23712;SDS011;12035;49.978;8.298;2022-07-23T10:09:29;4.30;;;3.40;;
23712;SDS011;12035;49.978;8.298;2022-07-23T10:14:29;4.53;;;3.10;;
23712;SDS011;12035;49.978;8.298;2022-07-23T10:19:28;4.97;;;3.60;;
23712;SDS011;12035;49.978;8.298;2022-07-23T10:24:40;4.97;;;3.33;;
23712;SDS011;12035;49.978;8.298;2022-07-23T10:30:07;5.22;;;4.20;;
23712;SDS011;12035;49.978;8.298;2022-07-23T10:35:13;3.93;;;3.37;;
23712;SDS011;12035;49.978;8.298;2022-07-23T10:40:20;5.80;;;3.63;;
23712;SDS011;12035;49.978;8.298;2022-07-23T10:45:22;5.53;;;3.63;;
23712;SDS011;12035;49.978;8.298;2022-07-23T10:50:23;6.38;;;3.40;;
23712;SDS011;12035;49.978;8.298;2022-07-23T11:00:54;3.72;;;3.00;;
23712;SDS011;12035;49.978;8.298;2022-07-23T11:05:51;5.13;;;3.40;;
23712;SDS011;12035;49.978;8.298;2022-07-23T11:10:52;4.40;;;3.40;;
23712;SDS011;12035;49.978;8.298;2022-07-23T11:16:05;5.85;;;3.80;;
23712;SDS011;12035;49.978;8.298;2022-07-23T11:26:46;4.95;;;3.72;;
23712;SDS011;12035;49.978;8.298;2022-07-23T11:31:51;4.40;;;3.70;;
23712;SDS011;12035;49.978;8.298;2022-07-23T11:36:49;4.30;;;3.60;;
23712;SDS011;12035;49.978;8.298;2022-07-23T11:41:48;4.75;;;3.75;;
23712;SDS011;12035;49.978;8.298;2022-07-23T11:46:53;6.13;;;3.90;;
23712;SDS011;12035;49.978;8.298;2022-07-23T11:52:02;5.03;;;3.58;;
23712;SDS011;12035;49.978;8.298;2022-07-23T11:57:03;4.90;;;3.20;;
23712;SDS011;12035;49.978;8.298;2022-07-23T12:02:01;3.92;;;3.10;;
23712;SDS011;12035;49.978;8.298;2022-07-23T12:07:00;4.45;;;3.20;;
23712;SDS011;12035;49.978;8.298;2022-07-23T12:11:58;4.97;;;3.65;;
23712;SDS011;12035;49.978;8.298;2022-07-23T12:17:10;5.70;;;3.55;;
23712;SDS011;12035;49.978;8.298;2022-07-23T12:22:08;4.22;;;3.55;;
23712;SDS011;12035;49.978;8.298;2022-07-23T12:27:08;7.00;;;3.50;;
23712;SDS011;12035;49.978;8.298;2022-07-23T12:32:17;4.18;;;2.92;;
23712;SDS011;12035;49.978;8.298;2022-07-23T12:37:27;3.33;;;2.72;;
23712;SDS011;12035;49.978;8.298;2022-07-23T12:42:24;4.70;;;3.20;;
23712;SDS011;12035;49.978;8.298;2022-07-23T12:47:23;4.65;;;3.30;;
23712;SDS011;12035;49.978;8.298;2022-07-23T12:52:20;3.60;;;3.13;;
23712;SDS011;12035;49.978;8.298;2022-07-23T12:57:18;4.10;;;3.08;;
23712;SDS011;12035;49.978;8.298;2022-07-23T13:02:15;4.45;;;3.40;;
23712;SDS011;12035;49.978;8.298;2022-07-23T13:07:13;4.53;;;2.92;;
23712;SDS011;12035;49.978;8.298;2022-07-23T13:12:10;4.07;;;2.92;;
23712;SDS011;12035;49.978;8.298;2022-07-23T13:17:07;3.90;;;3.10;;
23712;SDS011;12035;49.978;8.298;2022-07-23T13:22:04;5.82;;;3.10;;
23712;SDS011;12035;49.978;8.298;2022-07-23T13:27:03;4.97;;;3.03;;
23712;SDS011;12035;49.978;8.298;2022-07-23T13:32:03;3.55;;;3.00;;
23712;SDS011;12035;49.978;8.298;2022-07-23T13:37:01;4.28;;;3.20;;
23712;SDS011;12035;49.978;8.298;2022-07-23T13:41:58;3.80;;;3.28;;
23712;SDS011;12035;49.978;8.298;2022-07-23T13:46:57;4.25;;;2.83;;
23712;SDS011;12035;49.978;8.298;2022-07-23T13:51:54;4.60;;;3.40;;
23712;SDS011;12035;49.978;8.298;2022-07-23T13:56:52;4.85;;;3.83;;
23712;SDS011;12035;49.978;8.298;2022-07-23T14:01:49;4.03;;;3.15;;
23712;SDS011;12035;49.978;8.298;2022-07-23T14:06:48;4.32;;;3.47;;
23712;SDS011;12035;49.978;8.298;2022-07-23T14:11:45;4.55;;;3.30;;
23712;SDS011;12035;49.978;8.298;2022-07-23T14:16:42;3.35;;;2.80;;
23712;SDS011;12035;49.978;8.298;2022-07-23T14:21:40;4.80;;;3.58;;
23712;SDS011;12035;49.978;8.298;2022-07-23T14:26:39;4.80;;;3.50;;
23712;SDS011;12035;49.978;8.298;2022-07-23T14:31:36;4.15;;;2.97;;
23712;SDS011;12035;49.978;8.298;2022-07-23T14:36:34;4.07;;;3.33;;
23712;SDS011;12035;49.978;8.298;2022-07-23T14:41:31;5.40;;;3.40;;
23712;SDS011;12035;49.978;8.298;2022-07-23T14:46:30;5.95;;;3.25;;
23712;SDS011;12035;49.978;8.298;2022-07-23T14:51:28;3.97;;;2.88;;
23712;SDS011;12035;49.978;8.298;2022-07-23T14:56:26;4.03;;;2.92;;
23712;SDS011;12035;49.978;8.298;2022-07-23T15:01:23;8.55;;;3.10;;
23712;SDS011;12035;49.978;8.298;2022-07-23T15:06:22;4.82;;;3.28;;
23712;SDS011;12035;49.978;8.298;2022-07-23T15:11:19;4.03;;;3.00;;
23712;SDS011;12035;49.978;8.298;2022-07-23T15:16:17;5.13;;;2.65;;
23712;SDS011;12035;49.978;8.298;2022-07-23T15:21:14;3.72;;;2.83;;
23712;SDS011;12035;49.978;8.298;2022-07-23T15:26:12;4.50;;;3.25;;
23712;SDS011;12035;49.978;8.298;2022-07-23T15:31:10;3.85;;;3.00;;
23712;SDS011;12035;49.978;8.298;2022-07-23T15:36:07;4.57;;;3.05;;
23712;SDS011;12035;49.978;8.298;2022-07-23T15:41:05;3.25;;;2.72;;
23712;SDS011;12035;49.978;8.298;2022-07-23T15:46:04;3.88;;;2.80;;
23712;SDS011;12035;49.978;8.298;2022-07-23T15:51:02;3.88;;;2.70;;
23712;SDS011;12035;49.978;8.298;2022-07-23T15:56:00;3.47;;;2.60;;
23712;SDS011;12035;49.978;8.298;2022-07-23T16:00:58;3.45;;;2.63;;
23712;SDS011;12035;49.978;8.298;2022-07-23T16:05:59;3.58;;;2.55;;
23712;SDS011;12035;49.978;8.298;2022-07-23T16:10:57;3.03;;;2.30;;
23712;SDS011;12035;49.978;8.298;2022-07-23T16:15:54;3.10;;;2.25;;
23712;SDS011;12035;49.978;8.298;2022-07-23T16:20:53;4.38;;;2.60;;
23712;SDS011;12035;49.978;8.298;2022-07-23T16:25:52;4.72;;;2.20;;
23712;SDS011;12035;49.978;8.298;2022-07-23T16:30:49;3.40;;;2.17;;
23712;SDS011;12035;49.978;8.298;2022-07-23T16:35:46;3.83;;;2.38;;
23712;SDS011;12035;49.978;8.298;2022-07-23T16:40:43;4.40;;;2.50;;
23712;SDS011;12035;49.978;8.298;2022-07-23T16:45:41;4.00;;;2.58;;
23712;SDS011;12035;49.978;8.298;2022-07-23T16:50:40;3.00;;;2.22;;
23712;SDS011;12035;49.978;8.298;2022-07-23T16:55:37;3.25;;;2.83;;
23712;SDS011;12035;49.978;8.298;2022-07-23T17:00:34;6.95;;;2.90;;
23712;SDS011;12035;49.978;8.298;2022-07-23T17:05:33;6.18;;;3.10;;
23712;SDS011;12035;49.978;8.298;2022-07-23T17:10:30;4.32;;;2.92;;
23712;SDS011;12035;49.978;8.298;2022-07-23T17:15:27;4.95;;;2.85;;
23712;SDS011;12035;49.978;8.298;2022-07-23T17:20:24;5.97;;;2.80;;
23712;SDS011;12035;49.978;8.298;2022-07-23T17:25:23;5.05;;;2.70;;
23712;SDS011;12035;49.978;8.298;2022-07-23T17:30:20;3.95;;;2.70;;
23712;SDS011;12035;49.978;8.298;2022-07-23T17:35:17;3.72;;;2.53;;
23712;SDS011;12035;49.978;8.298;2022-07-23T17:40:15;5.30;;;2.42;;
23712;SDS011;12035;49.978;8.298;2022-07-23T17:45:14;4.40;;;2.60;;
23712;SDS011;12035;49.978;8.298;2022-07-23T17:50:11;4.07;;;2.58;;
23712;SDS011;12035;49.978;8.298;2022-07-23T17:55:08;3.35;;;2.40;;
23712;SDS011;12035;49.978;8.298;2022-07-23T18:00:06;5.03;;;2.72;;
23712;SDS011;12035;49.978;8.298;2022-07-23T18:05:09;4.57;;;2.38;;
23712;SDS011;12035;49.978;8.298;2022-07-23T18:10:07;3.63;;;2.38;;
23712;SDS011;12035;49.978;8.298;2022-07-23T18:15:07;4.00;;;2.60;;
23712;SDS011;12035;49.978;8.298;2022-07-23T18:20:05;3.05;;;2.33;;
23712;SDS011;12035;49.978;8.298;2022-07-23T18:25:06;3.53;;;2.20;;
23712;SDS011;12035;49.978;8.298;2022-07-23T18:30:06;4.38;;;2.47;;
23712;SDS011;12035;49.978;8.298;2022-07-23T18:35:05;3.92;;;2.30;;
23712;SDS011;12035;49.978;8.298;2022-07-23T18:40:06;3.10;;;2.40;;
23712;SDS011;12035;49.978;8.298;2022-07-23T18:45:05;3.90;;;2.70;;
23712;SDS011;12035;49.978;8.298;2022-07-23T18:50:05;3.90;;;2.25;;
23712;SDS011;12035;49.978;8.298;2022-07-23T18:55:08;4.82;;;2.60;;
23712;SDS011;12035;49.978;8.298;2022-07-23T19:00:06;4.18;;;2.40;;
23712;SDS011;12035;49.978;8.298;2022-07-23T19:05:06;3.00;;;2.25;;
23712;SDS011;12035;49.978;8.298;2022-07-23T19:10:05;5.35;;;2.50;;
23712;SDS011;12035;49.978;8.298;2022-07-23T19:15:04;3.15;;;2.50;;
23712;SDS011;12035;49.978;8.298;2022-07-23T19:20:03;3.42;;;2.35;;
23712;SDS011;12035;49.978;8.298;2022-07-23T19:25:05;3.70;;;2.05;;
23712;SDS011;12035;49.978;8.298;2022-07-23T19:30:04;3.22;;;2.30;;
23712;SDS011;12035;49.978;8.298;2022-07-23T19:35:04;3.58;;;2.15;;
23712;SDS011;12035;49.978;8.298;2022-07-23T19:40:05;2.95;;;2.10;;
23712;SDS011;12035;49.978;8.298;2022-07-23T19:45:05;3.75;;;2.50;;
23712;SDS011;12035;49.978;8.298;2022-07-23T19:50:04;5.93;;;2.30;;
23712;SDS011;12035;49.978;8.298;2022-07-23T19:55:02;4.10;;;2.50;;
23712;SDS011;12035;49.978;8.298;2022-07-23T20:00:03;3.20;;;2.20;;
23712;SDS011;12035;49.978;8.298;2022-07-23T20:05:03;2.50;;;2.00;;
23712;SDS011;12035;49.978;8.298;2022-07-23T20:10:02;4.45;;;2.65;;
23712;SDS011;12035;49.978;8.298;2022-07-23T20:15:03;6.05;;;2.88;;
23712;SDS011;12035;49.978;8.298;2022-07-23T20:20:02;7.03;;;2.30;;
23712;SDS011;12035;49.978;8.298;2022-07-23T20:25:02;4.25;;;2.20;;
23712;SDS011;12035;49.978;8.298;2022-07-23T20:30:02;3.65;;;2.17;;
23712;SDS011;12035;49.978;8.298;2022-07-23T20:35:00;4.95;;;2.53;;
23712;SDS011;12035;49.978;8.298;2022-07-23T20:39:57;4.75;;;2.45;;
23712;SDS011;12035;49.978;8.298;2022-07-23T20:44:54;3.00;;;2.00;;
23712;SDS011;12035;49.978;8.298;2022-07-23T20:49:53;4.35;;;2.22;;
23712;SDS011;12035;49.978;8.298;2022-07-23T20:54:50;6.05;;;2.30;;
23712;SDS011;12035;49.978;8.298;2022-07-23T20:59:47;4.20;;;2.10;;
23712;SDS011;12035;49.978;8.298;2022-07-23T21:04:45;3.47;;;2.13;;
23712;SDS011;12035;49.978;8.298;2022-07-23T21:09:44;4.90;;;2.10;;
23712;SDS011;12035;49.978;8.298;2022-07-23T21:14:41;9.07;;;2.38;;
23712;SDS011;12035;49.978;8.298;2022-07-23T21:19:39;3.80;;;2.13;;
23712;SDS011;12035;49.978;8.298;2022-07-23T21:24:36;7.80;;;2.35;;
23712;SDS011;12035;49.978;8.298;2022-07-23T21:29:35;3.13;;;2.10;;
23712;SDS011;12035;49.978;8.298;2022-07-23T21:34:32;5.38;;;2.40;;
23712;SDS011;12035;49.978;8.298;2022-07-23T21:39:30;3.70;;;2.33;;
23712;SDS011;12035;49.978;8.298;2022-07-23T21:44:27;3.60;;;2.20;;
23712;SDS011;12035;49.978;8.298;2022-07-23T21:49:25;4.35;;;2.40;;
23712;SDS011;12035;49.978;8.298;2022-07-23T21:54:22;4.78;;;2.17;;
23712;SDS011;12035;49.978;8.298;2022-07-23T21:59:20;3.88;;;2.05;;
23712;SDS011;12035;49.978;8.298;2022-07-23T22:04:17;5.43;;;2.25;;
23712;SDS011;12035;49.978;8.298;2022-07-23T22:09:16;5.22;;;2.50;;
23712;SDS011;12035;49.978;8.298;2022-07-23T22:14:13;2.55;;;2.03;;
23712;SDS011;12035;49.978;8.298;2022-07-23T22:19:10;3.30;;;2.38;;
23712;SDS011;12035;49.978;8.298;2022-07-23T22:24:07;6.38;;;2.70;;
23712;SDS011;12035;49.978;8.298;2022-07-23T22:29:06;6.22;;;2.67;;
23712;SDS011;12035;49.978;8.298;2022-07-23T22:34:03;7.03;;;2.88;;
23712;SDS011;12035;49.978;8.298;2022-07-23T22:39:01;3.75;;;2.10;;
23712;SDS011;12035;49.978;8.298;2022-07-23T22:43:59;6.25;;;2.50;;
23712;SDS011;12035;49.978;8.298;2022-07-23T22:48:57;4.93;;;2.25;;
23712;SDS011;12035;49.978;8.298;2022-07-23T22:53:54;5.43;;;2.60;;
23712;SDS011;12035;49.978;8.298;2022-07-23T22:58:52;3.80;;;2.50;;
23712;SDS011;12035;49.978;8.298;2022-07-23T23:03:49;4.22;;;2.70;;
23712;SDS011;12035;49.978;8.298;2022-07-23T23:08:47;4.85;;;3.10;;
23712;SDS011;12035;49.978;8.298;2022-07-23T23:13:44;4.88;;;2.17;;
23712;SDS011;12035;49.978;8.298;2022-07-23T23:18:41;4.85;;;2.42;;
23712;SDS011;12035;49.978;8.298;2022-07-23T23:23:38;2.92;;;2.17;;
23712;SDS011;12035;49.978;8.298;2022-07-23T23:28:37;2.90;;;2.35;;
23712;SDS011;12035;49.978;8.298;2022-07-23T23:33:34;4.80;;;2.30;;
23712;SDS011;12035;49.978;8.298;2022-07-23T23:38:31;4.35;;;2.67;;
23712;SDS011;12035;49.978;8.298;2022-07-23T23:43:28;2.90;;;2.08;;
23712;SDS011;12035;49.978;8.298;2022-07-23T23:48:28;6.55;;;2.50;;
23712;SDS011;12035;49.978;8.298;2022-07-23T23:53:25;4.70;;;2.30;;
23712;SDS011;12035;49.978;8.298;2022-07-23T23:58:22;4.40;;;2.17;;
